Strona główna
METAR-TAF:

METAR-TAF

Lotnisko :

Wattisham, Anglia

Szerokość geograficzna: 52-07N, Długość geograficzna: 000-58E, wysokość: 87 m

Aktualna obserwacja pogody

Raport powstał 26 minut temu, godzina 15:50 UTC
Wiatr 4 kt od zachodnio-północny zachód
Temperatura 7°C
Wilgotność 93%
Ciśnienie 1010 hPa
Widzialność 10 km lub więcej
Brak chmur poniżej 1500 m i brak chmur cumulonimbus

METAR: EGUW 271550Z 29004KT CAVOK 07/06 Q1010 BECMG 4000 BR RMK BLU BECMG GRN

czas: 16:16 (16:16 UTC)


TAF: brakujący

Obserwacja i prognoza pogody dla ponad 4000 lotnisk (raport METAR i TAF).

Dostępne stacje oznaczono żółtymi i czerwonymi punktami na mapie.

Najedź kursorem aby zobaczyć nazwę stacji.

Kliknij aby zobaczyć obserwacje i prognozy pogody.

Aby zmienić mapę: kliknij na zielony przycisk z czarnym krzyżykiem, aby powiększyć; na zielony przycisk z myślnikiem, aby pomniejszyć; na zielone strzałki, aby przejść do map sąsiednich.


METAR-TAF: